Hammonton, New Jersey
Current Conditions -  °F | °C
As of 4:54 AM on Tuesday 21 Oct 2014 (Local Time) from KACY Reporting Station
Few Clouds Few Clouds  
Wind Chill: 49°   Ceiling: Unl
Heat Index: 49°   Visibility: 10mi
Dew Point: 46°   Wind: 0mph
Humidity: 90%   Direction: NA
Pressure: 29.89"   Gusts: NA
Location:  39.64°N, 74.8°W
Report Text: KACY 210854Z 00000KT 10SM FEW055 09/08 A2989 RMK AO2 SLP122 T00940078 56016
Loading
Personal Weather Stations






























Interactive Weather Map
Tropical Storm Tracking
New forecast layout! Learn more

10-Day Weather Forecast

Advertisements
Track Severe Weather on mobile